Time;durP1;ratioP1;P1;durP2;ratioP2;P2;SDS_P1;SDS_P2;PMS_P1;PMS_P2;Temp;Humidity;BMP_temperature;BMP_pressure;BME280_temperature;BME280_humidity;BME280_pressure;Samples;Min_cycle;Max_cycle;Signal;HPM_P1;HPM_P2
2022/11/05 00:10:16;;;;;;;6.38;3.58;;;6.70;99.90;;;;;;5040615;28;20047;-66
2022/11/05 00:18:09;;;;;;;6.85;2.90;;;6.90;99.90;;;;;;5048909;28;20486;-65
2022/11/05 00:20:35;;;;;;;5.20;2.63;;;6.90;99.90;;;;;;5048571;28;20079;-67
2022/11/05 00:26:06;;;;;;;12.57;3.00;;;6.90;99.90;;;;;;5041001;28;20051;-66
2022/11/05 00:28:32;;;;;;;4.28;2.17;;;6.90;99.90;;;;;;5059658;28;20075;-66
2022/11/05 00:31:08;;;;;;;5.65;2.38;;;6.90;99.90;;;;;;5046286;28;20059;-66
2022/11/05 00:33:35;;;;;;;6.05;2.10;;;6.90;99.90;;;;;;5051578;28;20060;-66
2022/11/05 00:36:05;;;;;;;4.22;2.30;;;6.80;99.90;;;;;;5066271;28;20036;-66
2022/11/05 00:38:31;;;;;;;7.78;2.17;;;6.80;99.90;;;;;;5051591;28;20094;-65
2022/11/05 00:40:56;;;;;;;4.22;2.15;;;6.70;99.90;;;;;;5075842;27;20086;-65
2022/11/05 00:46:07;;;;;;;3.22;1.80;;;6.70;99.90;;;;;;5114155;27;20043;-66
2022/11/05 00:51:16;;;;;;;5.25;2.00;;;6.70;99.90;;;;;;5111241;27;20108;-67
2022/11/05 00:53:42;;;;;;;4.28;1.92;;;6.70;99.90;;;;;;5116118;27;20122;-66
2022/11/05 00:56:08;;;;;;;5.25;1.92;;;6.60;99.90;;;;;;5108406;27;20035;-67
2022/11/05 00:58:34;;;;;;;5.05;1.73;;;6.60;99.90;;;;;;5115135;27;20126;-68
2022/11/05 01:01:00;;;;;;;5.72;2.75;;;6.60;99.90;;;;;;5112595;27;20046;-68
2022/11/05 01:03:33;;;;;;;5.55;2.20;;;6.50;99.90;;;;;;5109624;27;20363;-66
2022/11/05 01:06:09;;;;;;;4.22;1.73;;;6.50;99.90;;;;;;5107809;27;20062;-66
2022/11/05 01:08:35;;;;;;;4.70;2.33;;;6.50;99.90;;;;;;5114007;27;20035;-65
2022/11/05 01:11:07;;;;;;;8.43;2.38;;;6.50;99.90;;;;;;5094627;27;20074;-66
2022/11/05 01:13:33;;;;;;;4.70;2.22;;;6.50;99.90;;;;;;5105967;27;20054;-67
2022/11/05 01:16:08;;;;;;;7.97;2.15;;;6.50;99.90;;;;;;5111122;27;20043;-66
2022/11/05 01:18:36;;;;;;;3.95;1.95;;;6.40;99.90;;;;;;5111160;27;20048;-67
2022/11/05 01:21:13;;;;;;;5.80;2.30;;;6.40;99.90;;;;;;5111534;27;20039;-65
2022/11/05 01:23:39;;;;;;;3.05;1.85;;;6.30;99.90;;;;;;5106064;27;20047;-66
2022/11/05 01:26:04;;;;;;;5.30;2.25;;;6.20;99.90;;;;;;5112632;27;20046;-66
2022/11/05 01:28:30;;;;;;;3.33;2.17;;;6.20;99.90;;;;;;5110165;27;20121;-65
2022/11/05 01:30:56;;;;;;;4.90;1.88;;;6.20;99.90;;;;;;5109671;27;20223;-65
2022/11/05 01:33:22;;;;;;;5.57;2.40;;;6.20;99.90;;;;;;5109346;27;20399;-67
2022/11/05 01:35:50;;;;;;;5.47;2.08;;;6.20;99.90;;;;;;5112774;27;20050;-66
2022/11/05 01:38:17;;;;;;;3.25;2.03;;;6.20;99.90;;;;;;5090271;27;20054;-68
2022/11/05 01:40:43;;;;;;;3.33;2.10;;;6.20;99.90;;;;;;5109582;27;20510;-66
2022/11/05 01:43:16;;;;;;;4.40;2.28;;;6.10;99.90;;;;;;5109959;27;20354;-67
2022/11/05 01:45:44;;;;;;;4.00;2.40;;;6.10;99.90;;;;;;5113381;27;20092;-67
2022/11/05 01:48:24;;;;;;;8.48;2.50;;;6.10;99.90;;;;;;5108806;27;20038;-64
2022/11/05 01:51:01;;;;;;;4.45;2.10;;;6.10;99.90;;;;;;5112595;27;20180;-66
2022/11/05 01:53:42;;;;;;;6.07;2.30;;;6.10;99.90;;;;;;5111630;27;20035;-66
2022/11/05 01:56:13;;;;;;;3.90;2.35;;;6.10;99.90;;;;;;5109384;27;20066;-67
2022/11/05 01:59:04;;;;;;;4.35;2.30;;;6.00;99.90;;;;;;5113152;27;20089;-66
2022/11/05 02:01:30;;;;;;;7.72;2.58;;;6.00;99.90;;;;;;5104316;27;20044;-65
2022/11/05 02:04:03;;;;;;;3.65;2.53;;;6.00;99.90;;;;;;5114562;27;20039;-65
2022/11/05 02:06:32;;;;;;;8.23;2.30;;;6.00;99.90;;;;;;5105920;27;20047;-66
2022/11/05 02:09:10;;;;;;;4.95;2.42;;;6.00;99.90;;;;;;5094747;27;20043;-67
2022/11/05 02:11:36;;;;;;;5.53;2.75;;;6.00;99.90;;;;;;5112137;27;20035;-65
2022/11/05 02:14:02;;;;;;;5.05;2.83;;;6.10;99.90;;;;;;5114536;27;20037;-65
2022/11/05 02:16:45;;;;;;;5.32;2.67;;;6.10;99.90;;;;;;5106069;27;20135;-66
2022/11/05 02:19:45;;;;;;;5.70;2.80;;;6.10;99.90;;;;;;5113998;27;20043;-66
2022/11/05 02:22:55;;;;;;;7.68;3.13;;;6.10;99.90;;;;;;5108009;27;20110;-67
2022/11/05 02:25:58;;;;;;;4.13;2.60;;;6.10;99.90;;;;;;5110957;27;20791;-66
2022/11/05 02:29:02;;;;;;;5.88;2.70;;;6.20;99.90;;;;;;5110611;27;20062;-66
2022/11/05 02:31:37;;;;;;;5.40;2.58;;;6.10;99.90;;;;;;5111876;27;20090;-67
2022/11/05 02:34:11;;;;;;;4.40;2.42;;;6.10;99.90;;;;;;5110278;27;20054;-68
2022/11/05 02:36:46;;;;;;;5.55;3.28;;;6.20;99.90;;;;;;5110184;27;20047;-65
2022/11/05 02:39:45;;;;;;;7.40;2.60;;;6.10;99.90;;;;;;5091180;27;20032;-68
2022/11/05 02:42:20;;;;;;;6.15;2.60;;;6.10;99.90;;;;;;5106566;27;20485;-67
2022/11/05 02:44:57;;;;;;;4.97;2.55;;;6.10;99.90;;;;;;5111974;27;20039;-66
2022/11/05 02:47:41;;;;;;;8.73;3.13;;;6.10;99.90;;;;;;5109725;27;20035;-66
2022/11/05 02:50:25;;;;;;;7.82;2.80;;;6.10;99.90;;;;;;5105738;27;20035;-66
2022/11/05 02:53:01;;;;;;;7.00;3.08;;;6.10;99.90;;;;;;5097256;27;20074;-66
2022/11/05 02:55:52;;;;;;;8.30;2.78;;;6.00;99.90;;;;;;5111319;27;20051;-65
2022/11/05 02:58:18;;;;;;;5.13;2.90;;;6.00;99.90;;;;;;5105731;27;20036;-66
2022/11/05 03:00:47;;;;;;;7.80;2.53;;;6.00;99.90;;;;;;5099557;27;20045;-66
2022/11/05 03:03:25;;;;;;;4.50;2.95;;;6.00;99.90;;;;;;5109585;27;20047;-65
2022/11/05 03:06:15;;;;;;;7.45;2.50;;;6.00;99.90;;;;;;5108625;27;20068;-65
2022/11/05 03:08:53;;;;;;;6.70;2.60;;;6.00;99.90;;;;;;5108296;27;20126;-66
2022/11/05 03:11:21;;;;;;;6.05;2.50;;;5.90;99.90;;;;;;5110394;27;20099;-66
2022/11/05 03:14:03;;;;;;;5.47;2.30;;;5.90;99.90;;;;;;5110093;27;20389;-65
2022/11/05 03:16:41;;;;;;;5.67;2.30;;;5.90;99.90;;;;;;5104131;28;20108;-66
2022/11/05 03:19:40;;;;;;;5.95;2.17;;;5.90;99.90;;;;;;5104202;28;20304;-66
2022/11/05 03:22:14;;;;;;;4.05;2.40;;;5.80;99.90;;;;;;5076712;28;20043;-66
2022/11/05 03:24:49;;;;;;;4.55;3.00;;;5.80;99.90;;;;;;5102071;28;20080;-65
2022/11/05 03:27:19;;;;;;;4.65;2.53;;;5.80;99.90;;;;;;5087375;28;20036;-67
2022/11/05 03:30:06;;;;;;;3.67;2.53;;;5.80;99.90;;;;;;5107182;28;20114;-66
2022/11/05 03:32:37;;;;;;;5.18;3.42;;;5.80;99.90;;;;;;5080073;28;20397;-67
2022/11/05 03:35:36;;;;;;;10.05;3.90;;;5.80;99.90;;;;;;5103178;28;20040;-67
2022/11/05 03:38:06;;;;;;;7.20;3.63;;;5.80;99.90;;;;;;5070951;28;20587;-66
2022/11/05 03:40:34;;;;;;;7.97;3.45;;;5.80;99.90;;;;;;5107366;28;20490;-65
2022/11/05 03:43:04;;;;;;;6.35;3.70;;;5.80;99.90;;;;;;5104753;28;20039;-65
2022/11/05 03:45:40;;;;;;;6.20;3.92;;;5.80;99.90;;;;;;5109003;28;20043;-66
2022/11/05 03:48:09;;;;;;;7.03;3.13;;;5.80;99.90;;;;;;5107503;28;20126;-66
2022/11/05 03:50:50;;;;;;;6.47;3.40;;;5.80;99.90;;;;;;5104218;28;20040;-66
2022/11/05 03:53:21;;;;;;;5.40;3.15;;;5.80;99.90;;;;;;5098938;28;20062;-66
2022/11/05 03:56:09;;;;;;;6.38;2.92;;;5.80;99.90;;;;;;5086218;28;20363;-66
2022/11/05 03:58:35;;;;;;;8.00;3.50;;;5.80;99.90;;;;;;5107703;28;20039;-66
2022/11/05 04:01:02;;;;;;;5.03;2.97;;;5.70;99.90;;;;;;5104461;28;20119;-66
2022/11/05 04:03:34;;;;;;;4.38;3.20;;;5.70;99.90;;;;;;5107684;28;20040;-66
2022/11/05 04:14:14;;;;;;;6.63;2.85;;;5.70;99.90;;;;;;5104757;28;20040;-66
2022/11/05 04:24:51;;;;;;;4.65;2.70;;;5.60;99.90;;;;;;5102764;28;20195;-64
2022/11/05 04:27:17;;;;;;;9.52;2.90;;;5.60;99.90;;;;;;5106883;28;20084;-67
2022/11/05 04:32:26;;;;;;;8.95;3.38;;;5.70;99.90;;;;;;5109371;28;20097;-65
2022/11/05 04:34:52;;;;;;;6.35;3.53;;;5.70;99.90;;;;;;5108960;28;20035;-66
2022/11/05 04:37:18;;;;;;;3.33;2.33;;;5.70;99.90;;;;;;5109702;27;20049;-67
2022/11/05 04:39:43;;;;;;;6.47;2.90;;;5.70;99.90;;;;;;5111206;27;20036;-67
2022/11/05 04:42:09;;;;;;;5.30;2.80;;;5.70;99.90;;;;;;5102318;28;20458;-65
2022/11/05 04:44:35;;;;;;;4.65;2.58;;;5.70;99.90;;;;;;5089398;27;20040;-65
2022/11/05 04:47:00;;;;;;;6.15;3.20;;;5.60;99.90;;;;;;5102565;27;20123;-67
2022/11/05 04:49:26;;;;;;;6.88;3.05;;;5.70;99.90;;;;;;5107972;27;20055;-66
2022/11/05 04:51:51;;;;;;;4.28;2.60;;;5.70;99.90;;;;;;5104089;27;20036;-66
2022/11/05 04:54:17;;;;;;;9.00;3.20;;;5.60;99.90;;;;;;5101284;28;20035;-65
2022/11/05 04:56:42;;;;;;;9.63;3.00;;;5.60;99.90;;;;;;5109157;27;20486;-66
2022/11/05 04:59:08;;;;;;;7.43;2.83;;;5.60;99.90;;;;;;5110859;27;20039;-65
2022/11/05 05:01:34;;;;;;;7.68;3.60;;;5.60;99.90;;;;;;5111390;27;20129;-66
2022/11/05 05:04:00;;;;;;;6.15;2.90;;;5.60;99.90;;;;;;5103758;28;20058;-66
2022/11/05 05:06:25;;;;;;;6.15;3.10;;;5.60;99.90;;;;;;5089696;28;20031;-67
2022/11/05 05:08:51;;;;;;;5.20;3.08;;;5.60;99.90;;;;;;5100137;28;20779;-67
2022/11/05 05:11:20;;;;;;;6.20;3.17;;;5.50;99.90;;;;;;5105533;28;20043;-66
2022/11/05 05:13:46;;;;;;;4.15;2.58;;;5.50;99.90;;;;;;5086605;28;20107;-67
2022/11/05 05:16:25;;;;;;;7.70;2.78;;;5.50;99.90;;;;;;5108439;28;20073;-66
2022/11/05 05:18:52;;;;;;;9.55;3.40;;;5.50;99.90;;;;;;5108572;27;20039;-66
2022/11/05 05:21:39;;;;;;;5.78;2.85;;;5.50;99.90;;;;;;5112921;27;20031;-67
2022/11/05 05:24:07;;;;;;;4.70;2.80;;;5.50;99.90;;;;;;5094272;27;20126;-67
2022/11/05 05:26:37;;;;;;;7.63;3.55;;;5.50;99.90;;;;;;5091188;27;20055;-65
2022/11/05 05:29:04;;;;;;;8.68;3.10;;;5.50;99.90;;;;;;5105358;27;20117;-66
2022/11/05 05:31:29;;;;;;;5.75;3.10;;;5.50;99.90;;;;;;5111817;27;20041;-67
2022/11/05 05:33:55;;;;;;;7.80;3.78;;;5.50;99.90;;;;;;5112778;27;20035;-66
2022/11/05 05:36:21;;;;;;;6.78;3.10;;;5.50;99.90;;;;;;5112642;27;20035;-65
2022/11/05 05:38:47;;;;;;;7.80;3.50;;;5.50;99.90;;;;;;5109033;27;20130;-65
2022/11/05 05:41:13;;;;;;;6.95;3.10;;;5.50;99.90;;;;;;5108230;27;20073;-66
2022/11/05 05:43:39;;;;;;;8.43;3.33;;;5.50;99.90;;;;;;5104868;27;20125;-67
2022/11/05 05:46:07;;;;;;;6.00;3.90;;;5.50;99.90;;;;;;5111998;27;20065;-66
2022/11/05 05:48:33;;;;;;;7.85;3.90;;;5.60;99.90;;;;;;5106757;27;20043;-66
2022/11/05 05:51:08;;;;;;;11.10;4.38;;;5.60;99.90;;;;;;5095095;27;20062;-67
2022/11/05 05:53:34;;;;;;;5.88;3.70;;;5.70;99.90;;;;;;5113061;27;20031;-65
2022/11/05 05:55:59;;;;;;;8.13;3.60;;;5.70;99.90;;;;;;5113178;27;20061;-67
2022/11/05 05:58:29;;;;;;;6.35;4.60;;;5.70;99.90;;;;;;5126016;27;20035;-66
2022/11/05 06:00:58;;;;;;;9.00;4.10;;;5.80;99.90;;;;;;5105996;27;20047;-65
2022/11/05 06:03:24;;;;;;;5.07;3.63;;;5.80;99.90;;;;;;5115568;27;20085;-66
2022/11/05 06:05:49;;;;;;;7.57;3.67;;;5.90;99.90;;;;;;5110184;27;20075;-66
2022/11/05 06:08:15;;;;;;;6.88;3.97;;;5.90;99.90;;;;;;5099466;27;20138;-67
2022/11/05 06:10:41;;;;;;;6.43;4.22;;;5.90;99.90;;;;;;5103382;27;20047;-65
2022/11/05 06:13:06;;;;;;;9.20;3.85;;;5.90;99.90;;;;;;5111127;27;20042;-66
2022/11/05 06:15:32;;;;;;;5.30;3.28;;;6.00;99.90;;;;;;5109030;27;20080;-67
2022/11/05 06:17:57;;;;;;;6.18;3.80;;;6.00;99.90;;;;;;5111315;27;20561;-66
2022/11/05 06:20:23;;;;;;;5.80;3.78;;;6.00;99.90;;;;;;5106389;27;20393;-66
2022/11/05 06:22:56;;;;;;;3.75;3.25;;;6.00;99.90;;;;;;5111403;27;20050;-67
2022/11/05 06:25:22;;;;;;;8.77;3.38;;;6.10;99.90;;;;;;5112104;27;20114;-66
2022/11/05 06:27:48;;;;;;;6.90;4.18;;;6.00;99.90;;;;;;5105945;27;20465;-66
2022/11/05 06:30:14;;;;;;;4.93;3.38;;;6.00;99.90;;;;;;5104292;28;20040;-65
2022/11/05 06:32:40;;;;;;;4.57;3.20;;;6.00;99.90;;;;;;5111851;27;20035;-67
2022/11/05 06:35:05;;;;;;;5.25;3.33;;;6.00;99.90;;;;;;5107609;27;20041;-64
2022/11/05 06:37:32;;;;;;;8.27;3.47;;;6.00;99.90;;;;;;5107447;27;21012;-66
2022/11/05 06:39:58;;;;;;;8.23;3.72;;;6.00;99.90;;;;;;5108589;27;20039;-65
2022/11/05 06:42:25;;;;;;;7.40;3.42;;;6.00;99.90;;;;;;5108842;27;20038;-67
2022/11/05 06:44:51;;;;;;;4.78;3.40;;;6.00;99.90;;;;;;5105279;27;20032;-66
2022/11/05 06:47:18;;;;;;;5.28;3.38;;;6.00;99.90;;;;;;5107243;27;20370;-66
2022/11/05 06:49:47;;;;;;;6.38;3.38;;;6.00;99.90;;;;;;5106789;27;20039;-66
2022/11/05 06:52:14;;;;;;;4.18;3.30;;;6.00;99.90;;;;;;5108747;27;20046;-67
2022/11/05 06:54:41;;;;;;;9.18;3.55;;;5.90;99.90;;;;;;5109146;27;20039;-65
2022/11/05 06:57:10;;;;;;;6.68;2.85;;;6.00;99.90;;;;;;5112668;27;20042;-67
2022/11/05 06:59:39;;;;;;;3.33;3.03;;;6.00;99.90;;;;;;5100783;27;20544;-67
2022/11/05 07:02:06;;;;;;;5.32;3.08;;;6.00;99.90;;;;;;5096559;27;20076;-64
2022/11/05 07:04:32;;;;;;;5.22;3.40;;;6.00;99.90;;;;;;5108281;27;20042;-65
2022/11/05 07:06:59;;;;;;;5.40;3.30;;;6.00;99.90;;;;;;5090286;27;20047;-67
2022/11/05 07:09:25;;;;;;;8.05;3.22;;;6.00;99.90;;;;;;5110249;27;20051;-65
2022/11/05 07:11:51;;;;;;;5.65;3.40;;;5.90;99.90;;;;;;5108557;27;20035;-66
2022/11/05 07:14:17;;;;;;;5.60;3.03;;;6.00;99.90;;;;;;5102400;27;20036;-66
2022/11/05 07:16:42;;;;;;;5.85;3.38;;;6.00;99.90;;;;;;5088154;28;20036;-65
2022/11/05 07:19:08;;;;;;;7.05;4.15;;;6.00;99.90;;;;;;5115945;28;20055;-66
2022/11/05 07:21:34;;;;;;;7.30;3.90;;;6.00;99.90;;;;;;5104732;27;20500;-66
2022/11/05 07:23:59;;;;;;;6.70;3.30;;;6.10;99.90;;;;;;5123005;27;20035;-66
2022/11/05 07:26:25;;;;;;;5.90;3.58;;;6.10;99.90;;;;;;5102184;28;20128;-67
2022/11/05 07:28:51;;;;;;;4.55;3.15;;;6.20;99.90;;;;;;5101713;28;20063;-67
2022/11/05 07:31:17;;;;;;;5.78;3.47;;;6.20;99.90;;;;;;5110803;28;20111;-66
2022/11/05 07:33:42;;;;;;;5.65;3.67;;;6.20;99.90;;;;;;5110686;27;20039;-66
2022/11/05 07:36:08;;;;;;;5.80;3.35;;;6.30;99.90;;;;;;5109763;28;20058;-66
2022/11/05 07:38:34;;;;;;;6.68;3.92;;;6.30;99.90;;;;;;5100508;28;20136;-66
2022/11/05 07:41:00;;;;;;;5.38;3.60;;;6.40;99.90;;;;;;5098759;27;20047;-65
2022/11/05 07:43:25;;;;;;;6.85;3.78;;;6.40;99.90;;;;;;5111265;28;20108;-66
2022/11/05 07:45:51;;;;;;;4.20;3.25;;;6.40;99.90;;;;;;5103557;28;20034;-66
2022/11/05 07:48:16;;;;;;;7.35;4.00;;;6.50;99.90;;;;;;5091000;28;20089;-66
2022/11/05 07:50:42;;;;;;;5.82;3.50;;;6.50;99.90;;;;;;5092153;28;20051;-65
2022/11/05 07:53:13;;;;;;;8.18;4.05;;;6.60;99.90;;;;;;5127932;28;20501;-66
2022/11/05 07:55:44;;;;;;;5.10;3.80;;;6.60;99.90;;;;;;5099731;28;20088;-66
2022/11/05 07:58:10;;;;;;;7.32;4.07;;;6.70;99.90;;;;;;5103800;28;20039;-66
2022/11/05 08:00:36;;;;;;;6.72;3.67;;;6.70;99.90;;;;;;5100711;28;20379;-66
2022/11/05 08:03:05;;;;;;;7.03;4.28;;;6.80;99.90;;;;;;5099872;28;20123;-65
2022/11/05 08:05:33;;;;;;;7.60;4.30;;;6.90;99.90;;;;;;5104177;27;20051;-66
2022/11/05 08:07:59;;;;;;;6.82;4.25;;;6.80;99.90;;;;;;5107457;27;20900;-66
2022/11/05 08:10:25;;;;;;;7.43;4.50;;;6.90;99.90;;;;;;5115797;27;20039;-67
2022/11/05 08:12:55;;;;;;;9.70;4.75;;;7.00;99.90;;;;;;5097012;27;20089;-67
2022/11/05 08:15:21;;;;;;;6.45;4.20;;;7.10;99.90;;;;;;5128365;27;20389;-66
2022/11/05 08:17:47;;;;;;;8.95;4.22;;;7.10;99.90;;;;;;5091469;27;20039;-66
2022/11/05 08:20:14;;;;;;;7.30;4.03;;;7.30;99.90;;;;;;5117598;27;20133;-65
2022/11/05 08:22:43;;;;;;;6.95;3.88;;;7.30;99.90;;;;;;5093897;27;20051;-65
2022/11/05 08:25:10;;;;;;;7.43;4.57;;;7.40;99.90;;;;;;5116243;27;20111;-66
2022/11/05 08:27:36;;;;;;;9.00;3.85;;;7.50;99.90;;;;;;5109737;27;20135;-67
2022/11/05 08:30:04;;;;;;;8.48;4.10;;;7.60;99.90;;;;;;5124943;27;20042;-68
2022/11/05 08:32:30;;;;;;;6.22;3.80;;;7.70;99.90;;;;;;5110275;27;20039;-66
2022/11/05 08:34:56;;;;;;;6.43;3.70;;;7.70;99.90;;;;;;5114622;27;20079;-66
2022/11/05 08:37:21;;;;;;;7.03;3.35;;;7.80;99.90;;;;;;5113473;27;20039;-66
2022/11/05 08:39:47;;;;;;;4.22;3.33;;;7.90;99.90;;;;;;5111900;27;20121;-66
2022/11/05 08:42:13;;;;;;;5.78;3.50;;;8.00;99.90;;;;;;5107978;28;20047;-66
2022/11/05 08:44:38;;;;;;;6.65;4.15;;;8.10;99.90;;;;;;5114196;27;20051;-67
2022/11/05 08:47:04;;;;;;;5.82;3.92;;;8.20;99.90;;;;;;5112819;27;20498;-66
2022/11/05 08:49:30;;;;;;;5.80;3.40;;;8.30;99.90;;;;;;5115007;27;20043;-66
2022/11/05 08:51:55;;;;;;;6.63;3.40;;;8.30;99.90;;;;;;5106708;27;20383;-66
2022/11/05 08:54:21;;;;;;;6.35;3.65;;;8.40;99.90;;;;;;5108445;27;20043;-66
2022/11/05 08:56:46;;;;;;;8.27;3.47;;;8.40;99.90;;;;;;5112298;27;21126;-67
2022/11/05 08:59:12;;;;;;;7.35;4.38;;;8.50;99.90;;;;;;5115782;27;20432;-67
2022/11/05 09:01:38;;;;;;;5.72;2.97;;;8.70;99.90;;;;;;5091359;27;20050;-67
2022/11/05 09:04:03;;;;;;;7.65;3.35;;;8.80;99.90;;;;;;5113701;27;20050;-67
2022/11/05 09:06:29;;;;;;;7.25;3.05;;;9.00;99.90;;;;;;5107742;27;20050;-66
2022/11/05 09:08:55;;;;;;;5.25;3.83;;;9.20;99.90;;;;;;5114459;27;20031;-66
2022/11/05 09:11:20;;;;;;;6.65;3.15;;;9.40;99.90;;;;;;5117180;27;20039;-66
2022/11/05 09:13:46;;;;;;;6.55;2.90;;;9.40;99.90;;;;;;5117053;27;20118;-67
2022/11/05 09:16:23;;;;;;;5.10;3.00;;;9.60;99.90;;;;;;5113077;27;20035;-68
2022/11/05 09:18:49;;;;;;;6.25;3.40;;;9.80;99.90;;;;;;5109214;28;20134;-67
2022/11/05 09:21:18;;;;;;;3.58;2.70;;;9.90;99.90;;;;;;5111823;28;20110;-67
2022/11/05 09:23:45;;;;;;;8.90;3.10;;;10.10;99.90;;;;;;5111712;28;20036;-68
2022/11/05 09:26:12;;;;;;;5.20;2.72;;;10.40;99.90;;;;;;5111810;28;20073;-67
2022/11/05 09:28:38;;;;;;;5.25;2.60;;;10.60;99.90;;;;;;5111257;28;20047;-66
2022/11/05 09:31:06;;;;;;;5.38;2.80;;;10.80;99.90;;;;;;5111149;28;20050;-67
2022/11/05 09:33:34;;;;;;;4.18;2.55;;;10.80;99.90;;;;;;5111529;28;20036;-66
2022/11/05 09:35:59;;;;;;;4.53;2.50;;;11.00;99.90;;;;;;5094346;28;20402;-67
2022/11/05 09:38:25;;;;;;;7.13;2.60;;;11.00;99.90;;;;;;5111117;28;20041;-66
2022/11/05 09:41:01;;;;;;;5.32;2.58;;;11.20;99.90;;;;;;5111042;28;20042;-67
2022/11/05 09:43:39;;;;;;;6.00;2.60;;;11.30;99.90;;;;;;5111387;28;20043;-67
2022/11/05 09:46:27;;;;;;;4.63;2.85;;;11.40;99.90;;;;;;5111128;28;20155;-67
2022/11/05 09:49:02;;;;;;;7.88;2.15;;;11.70;99.90;;;;;;5099709;28;20039;-67
2022/11/05 09:51:28;;;;;;;5.03;2.65;;;11.80;99.90;;;;;;5107394;28;20040;-67
2022/11/05 09:53:54;;;;;;;4.97;2.20;;;11.90;99.90;;;;;;5110799;28;20118;-67
2022/11/05 09:56:30;;;;;;;2.67;2.00;;;12.20;99.90;;;;;;5112165;28;20438;-67
2022/11/05 09:59:12;;;;;;;5.15;2.80;;;12.30;99.90;;;;;;5109046;28;20080;-68
2022/11/05 10:01:38;;;;;;;6.35;2.55;;;12.50;99.90;;;;;;5108574;28;20122;-67
2022/11/05 10:04:11;;;;;;;4.43;2.20;;;12.60;99.90;;;;;;5110281;28;20116;-66
2022/11/05 10:07:01;;;;;;;5.15;2.03;;;12.60;99.90;;;;;;5107805;28;20031;-67
2022/11/05 10:09:31;;;;;;;6.55;2.45;;;12.30;99.90;;;;;;5091919;28;20062;-66
2022/11/05 10:12:01;;;;;;;6.93;2.35;;;12.10;99.90;;;;;;5110161;28;20032;-67
2022/11/05 10:14:32;;;;;;;8.73;2.38;;;12.30;99.90;;;;;;5111675;28;20035;-67
2022/11/05 10:17:04;;;;;;;2.95;1.88;;;12.40;99.90;;;;;;5109868;28;20039;-68
2022/11/05 10:19:40;;;;;;;3.72;1.98;;;12.60;99.90;;;;;;5109822;28;20055;-67
2022/11/05 10:22:15;;;;;;;6.82;2.85;;;12.70;99.90;;;;;;5110222;28;20038;-68
2022/11/05 10:24:43;;;;;;;5.57;2.40;;;12.80;99.90;;;;;;5110287;28;20517;-67
2022/11/05 10:27:18;;;;;;;7.75;3.13;;;12.90;99.90;;;;;;5110506;28;20643;-67
2022/11/05 10:29:44;;;;;;;5.20;2.20;;;12.90;99.90;;;;;;5110745;28;20118;-67
2022/11/05 10:32:20;;;;;;;4.85;2.10;;;12.90;99.90;;;;;;5109872;28;20082;-67
2022/11/05 10:34:46;;;;;;;2.65;1.88;;;13.00;99.90;;;;;;5093247;28;20525;-68
2022/11/05 10:37:11;;;;;;;7.15;1.60;;;12.80;99.90;;;;;;5110422;28;20116;-66
2022/11/05 10:39:37;;;;;;;4.68;1.58;;;12.80;99.90;;;;;;5110473;28;20035;-68
2022/11/05 10:42:03;;;;;;;5.05;1.80;;;13.00;99.90;;;;;;5106689;28;20032;-67
2022/11/05 10:44:50;;;;;;;5.53;1.67;;;12.90;99.90;;;;;;5089132;28;20449;-66
2022/11/05 10:47:49;;;;;;;3.72;1.40;;;13.00;99.90;;;;;;5107983;28;20430;-68
2022/11/05 10:50:18;;;;;;;7.65;2.00;;;13.00;99.90;;;;;;5104418;28;20043;-67
2022/11/05 10:53:00;;;;;;;4.28;1.50;;;12.60;99.90;;;;;;5108558;28;20035;-67
2022/11/05 10:55:36;;;;;;;2.95;1.25;;;12.60;99.90;;;;;;5091450;28;20047;-67
2022/11/05 10:58:20;;;;;;;3.13;1.35;;;12.50;99.90;;;;;;5107791;28;20040;-67
2022/11/05 11:00:48;;;;;;;3.83;1.40;;;12.90;99.90;;;;;;5107755;28;20040;-66
2022/11/05 11:03:34;;;;;;;5.72;1.60;;;13.30;99.90;;;;;;5105920;28;20036;-67
2022/11/05 11:06:20;;;;;;;4.00;1.60;;;13.10;99.90;;;;;;5109801;28;20050;-68
2022/11/05 11:08:47;;;;;;;5.07;1.80;;;13.10;99.90;;;;;;5109976;28;20043;-67
2022/11/05 11:11:27;;;;;;;5.82;1.80;;;13.00;99.90;;;;;;5109552;28;20110;-67
2022/11/05 11:13:55;;;;;;;4.50;1.98;;;12.80;99.90;;;;;;5107460;28;20066;-68
2022/11/05 11:16:23;;;;;;;4.80;1.83;;;12.60;99.90;;;;;;5108580;28;20039;-67
2022/11/05 11:18:55;;;;;;;6.30;2.03;;;12.40;99.90;;;;;;5108328;28;20537;-67
2022/11/05 11:21:25;;;;;;;3.45;1.70;;;12.30;99.90;;;;;;5109744;28;20565;-66
2022/11/05 11:23:58;;;;;;;4.75;1.30;;;12.20;99.90;;;;;;5109954;28;20047;-67
2022/11/05 11:26:27;;;;;;;4.30;1.10;;;12.20;99.90;;;;;;5109423;28;20043;-67
2022/11/05 11:29:15;;;;;;;5.32;1.63;;;12.20;99.90;;;;;;5111837;28;20050;-67
2022/11/05 11:31:41;;;;;;;5.25;1.33;;;12.00;99.90;;;;;;5109338;28;20478;-66
2022/11/05 11:34:15;;;;;;;4.68;1.48;;;11.90;99.90;;;;;;5109585;28;20038;-66
2022/11/05 11:36:47;;;;;;;4.18;1.40;;;11.90;99.90;;;;;;5108135;28;20096;-68
2022/11/05 11:39:23;;;;;;;5.13;1.60;;;11.80;99.90;;;;;;5108523;28;20482;-66
2022/11/05 11:41:59;;;;;;;2.78;1.75;;;11.70;99.90;;;;;;5113291;28;20172;-66
2022/11/05 11:44:28;;;;;;;6.43;2.28;;;11.60;99.90;;;;;;5113461;27;20176;-66
2022/11/05 11:46:57;;;;;;;6.05;2.25;;;11.50;99.90;;;;;;5112457;28;20051;-66
2022/11/05 11:49:37;;;;;;;3.85;2.10;;;11.50;99.90;;;;;;5113654;28;20714;-67
2022/11/05 11:52:17;;;;;;;6.13;2.33;;;11.30;99.90;;;;;;5110892;28;20078;-68
2022/11/05 11:54:43;;;;;;;5.05;2.75;;;11.30;99.90;;;;;;5110798;27;20110;-66
2022/11/05 11:57:24;;;;;;;6.40;2.78;;;11.20;99.90;;;;;;5092961;28;20067;-66
2022/11/05 11:59:55;;;;;;;9.15;2.80;;;11.20;99.90;;;;;;5113188;28;20134;-66
2022/11/05 12:02:59;;;;;;;7.18;2.95;;;11.10;99.90;;;;;;5111745;28;20032;-66
2022/11/05 12:06:17;;;;;;;6.30;3.13;;;11.10;99.90;;;;;;5112274;27;20050;-67
2022/11/05 12:09:11;;;;;;;5.55;2.53;;;11.10;99.90;;;;;;5053903;28;20711;-66
2022/11/05 12:11:58;;;;;;;7.40;2.80;;;11.20;99.90;;;;;;5045155;28;20059;-67
2022/11/05 12:14:33;;;;;;;12.82;3.30;;;11.20;99.90;;;;;;5043253;28;20047;-66
2022/11/05 12:17:10;;;;;;;8.02;3.17;;;11.20;99.90;;;;;;5040590;28;20051;-67
2022/11/05 12:19:58;;;;;;;6.68;2.80;;;11.30;99.90;;;;;;5034176;28;20411;-68
2022/11/05 12:22:38;;;;;;;6.82;2.60;;;11.30;99.90;;;;;;5034530;28;20045;-67
2022/11/05 12:25:19;;;;;;;7.25;2.65;;;11.30;99.90;;;;;;5042940;28;20049;-67
2022/11/05 12:27:54;;;;;;;4.68;2.67;;;11.30;99.90;;;;;;5069849;28;20064;-67
2022/11/05 12:30:21;;;;;;;10.27;3.08;;;11.30;99.90;;;;;;5045925;28;20033;-66
2022/11/05 12:32:58;;;;;;;7.13;2.90;;;11.30;99.90;;;;;;5054010;28;20040;-66
2022/11/05 12:35:27;;;;;;;7.75;2.70;;;11.40;99.90;;;;;;5051711;28;20151;-66
2022/11/05 12:38:01;;;;;;;9.05;3.13;;;11.40;99.90;;;;;;5046541;28;20748;-66
2022/11/05 12:40:59;;;;;;;5.90;3.00;;;11.40;99.90;;;;;;5033605;28;20083;-67
2022/11/05 12:43:48;;;;;;;7.88;2.75;;;11.50;99.90;;;;;;5033106;28;20047;-67
2022/11/05 12:46:20;;;;;;;6.80;3.17;;;11.60;99.90;;;;;;5097519;28;20402;-67
2022/11/05 12:48:49;;;;;;;4.38;2.90;;;11.70;99.90;;;;;;5111702;28;20044;-67
2022/11/05 12:51:36;;;;;;;6.00;2.90;;;11.80;99.90;;;;;;5107000;28;20047;-68
2022/11/05 12:54:12;;;;;;;6.85;3.28;;;11.90;99.90;;;;;;5111262;28;20039;-67
2022/11/05 12:56:46;;;;;;;6.80;2.70;;;12.00;99.90;;;;;;5106166;28;20031;-67
2022/11/05 12:59:17;;;;;;;7.05;2.90;;;12.00;99.90;;;;;;5101869;28;20050;-67
2022/11/05 13:01:48;;;;;;;9.23;3.30;;;11.90;99.90;;;;;;5103372;28;20047;-67
2022/11/05 13:04:37;;;;;;;9.32;3.55;;;11.90;99.90;;;;;;5110861;28;20039;-67
2022/11/05 13:07:07;;;;;;;7.97;3.08;;;11.90;99.90;;;;;;5109011;28;20100;-67
2022/11/05 13:10:00;;;;;;;6.57;3.22;;;11.80;99.90;;;;;;5102885;28;20529;-68
2022/11/05 13:12:30;;;;;;;6.63;3.53;;;11.80;99.90;;;;;;5106780;28;20076;-68
2022/11/05 13:15:04;;;;;;;9.15;3.70;;;11.80;99.90;;;;;;5090639;28;20052;-65
2022/11/05 13:18:01;;;;;;;9.23;3.63;;;11.80;99.90;;;;;;5109688;27;20056;-67
2022/11/05 13:20:31;;;;;;;4.57;2.90;;;11.80;99.90;;;;;;5101628;28;20124;-67
2022/11/05 13:22:59;;;;;;;5.93;3.40;;;11.80;99.90;;;;;;5111725;28;20043;-68
2022/11/05 13:25:30;;;;;;;10.10;3.60;;;11.90;99.90;;;;;;5109800;27;21671;-67
2022/11/05 13:28:27;;;;;;;7.57;3.20;;;11.90;99.90;;;;;;5111921;27;20031;-67
2022/11/05 13:30:57;;;;;;;6.38;3.03;;;11.80;99.90;;;;;;5111419;28;20043;-67
2022/11/05 13:33:26;;;;;;;7.70;3.65;;;11.80;99.90;;;;;;5093626;28;20031;-67
2022/11/05 13:38:59;;;;;;;5.90;2.92;;;11.80;99.90;;;;;;5101352;27;20052;-67
2022/11/05 13:41:33;;;;;;;5.40;2.75;;;11.70;99.90;;;;;;5105768;28;20096;-66
2022/11/05 13:44:14;;;;;;;4.88;3.10;;;11.70;99.90;;;;;;5108641;28;20047;-67
2022/11/05 13:47:00;;;;;;;6.45;3.20;;;11.80;99.90;;;;;;5108979;28;20071;-68
2022/11/05 13:49:51;;;;;;;7.28;3.50;;;11.70;99.90;;;;;;5105110;27;20377;-67
2022/11/05 13:52:44;;;;;;;7.95;3.15;;;11.60;99.90;;;;;;5049719;28;20037;-67
2022/11/05 13:55:34;;;;;;;;;;;11.60;99.90;;;;;;5052440;28;20534;-66
2022/11/05 13:58:11;;;;;;;7.47;3.38;;;11.50;99.90;;;;;;5052334;28;19916;-67
2022/11/05 14:01:06;;;;;;;6.93;3.47;;;11.50;99.90;;;;;;5054646;28;20083;-67
2022/11/05 14:03:32;;;;;;;8.15;3.63;;;11.50;99.90;;;;;;5051635;28;20115;-67